Time;durP1;ratioP1;P1;durP2;ratioP2;P2;SDS_P1;SDS_P2;PMS_P1;PMS_P2;Temp;Humidity;BMP_temperature;BMP_pressure;BME280_temperature;BME280_humidity;BME280_pressure;Samples;Min_cycle;Max_cycle;Signal;HPM_P1;HPM_P2
2021/05/23 00:00:08;;;;;;;0.00;0.00;;;15.00;87.70;;;;;;4192007;28;20102;-45
2021/05/23 00:02:29;;;;;;;0.00;0.00;;;15.00;87.70;;;;;;4191992;28;20700;-48
2021/05/23 00:04:52;;;;;;;0.00;0.00;;;15.00;87.70;;;;;;4192047;28;20055;-48
2021/05/23 00:07:15;;;;;;;0.00;0.00;;;14.90;87.60;;;;;;4175681;28;20053;-46
2021/05/23 00:09:37;;;;;;;0.00;0.00;;;15.00;87.70;;;;;;4190085;28;20094;-46
2021/05/23 00:11:59;;;;;;;0.30;0.30;;;15.00;87.70;;;;;;4191179;28;20109;-46
2021/05/23 00:14:22;;;;;;;0.00;0.00;;;15.00;87.60;;;;;;4191800;28;20045;-48
2021/05/23 00:16:43;;;;;;;0.00;0.00;;;14.90;87.50;;;;;;4191819;28;20086;-46
2021/05/23 00:19:05;;;;;;;0.00;0.00;;;15.00;87.60;;;;;;4175321;28;20106;-48
2021/05/23 00:21:29;;;;;;;0.00;0.00;;;14.90;87.60;;;;;;4175216;28;20052;-47
2021/05/23 00:23:52;;;;;;;0.00;0.00;;;15.00;87.60;;;;;;4175342;28;20409;-46
2021/05/23 00:26:14;;;;;;;0.25;0.25;;;14.90;87.60;;;;;;4187873;28;20131;-47
2021/05/23 00:28:36;;;;;;;2.88;1.17;;;14.90;87.60;;;;;;4191538;28;20052;-51
2021/05/23 00:30:59;;;;;;;0.15;0.15;;;14.90;87.60;;;;;;4191578;28;20052;-46
2021/05/23 00:33:21;;;;;;;0.00;0.00;;;14.90;87.60;;;;;;4191569;28;20434;-47
2021/05/23 00:35:42;;;;;;;0.00;0.00;;;14.90;87.70;;;;;;4190922;28;20138;-46
2021/05/23 00:38:07;;;;;;;0.00;0.00;;;14.90;87.60;;;;;;4191310;28;20059;-47
2021/05/23 00:40:28;;;;;;;0.00;0.00;;;14.90;87.60;;;;;;4191416;28;20133;-46
2021/05/23 00:42:50;;;;;;;0.95;0.73;;;14.90;87.60;;;;;;4191707;28;20553;-49
2021/05/23 00:45:15;;;;;;;0.10;0.10;;;14.90;87.70;;;;;;4191516;28;20571;-49
2021/05/23 00:47:38;;;;;;;0.00;0.00;;;14.90;87.70;;;;;;4191045;28;20044;-48
2021/05/23 00:50:00;;;;;;;0.13;0.13;;;14.90;87.70;;;;;;4191120;28;20049;-50
2021/05/23 00:52:24;;;;;;;2.25;0.75;;;14.90;87.70;;;;;;4191354;28;20041;-47
2021/05/23 00:54:46;;;;;;;0.40;0.40;;;14.90;87.80;;;;;;4191148;28;20148;-48
2021/05/23 00:57:08;;;;;;;0.00;0.00;;;14.90;87.70;;;;;;4191522;28;20463;-47
2021/05/23 00:59:29;;;;;;;0.00;0.00;;;14.90;87.70;;;;;;4191468;28;20074;-46
2021/05/23 01:02:31;;;;;;;0.32;0.32;;;14.80;87.60;;;;;;4191445;28;20213;-46
2021/05/23 01:04:53;;;;;;;0.00;0.00;;;14.80;87.60;;;;;;4190680;28;20487;-45
2021/05/23 01:07:14;;;;;;;0.00;0.00;;;14.80;87.70;;;;;;4190898;28;20078;-48
2021/05/23 01:09:36;;;;;;;0.00;0.00;;;14.80;87.60;;;;;;4190709;28;20041;-45
2021/05/23 01:12:34;;;;;;;0.00;0.00;;;14.80;87.70;;;;;;4191417;28;20512;-50
2021/05/23 01:15:01;;;;;;;0.00;0.00;;;14.80;87.70;;;;;;4154411;28;20575;-46
2021/05/23 01:17:38;;;;;;;0.00;0.00;;;14.80;87.70;;;;;;4191018;28;20052;-49
2021/05/23 01:20:22;;;;;;;0.00;0.00;;;14.80;87.70;;;;;;4190516;28;20052;-46
2021/05/23 01:22:49;;;;;;;0.15;0.15;;;14.80;87.60;;;;;;4191117;28;20076;-46
2021/05/23 01:25:16;;;;;;;0.00;0.00;;;14.80;87.70;;;;;;4190591;28;20055;-45
2021/05/23 01:27:45;;;;;;;0.00;0.00;;;14.80;87.70;;;;;;4190367;28;20540;-45
2021/05/23 01:30:10;;;;;;;0.00;0.00;;;14.80;87.70;;;;;;4190948;28;20196;-46
2021/05/23 01:32:31;;;;;;;0.00;0.00;;;14.80;87.70;;;;;;4191282;28;20048;-46
2021/05/23 01:34:53;;;;;;;0.10;0.10;;;14.70;87.70;;;;;;4189635;28;20103;-46
2021/05/23 01:37:15;;;;;;;;;;;14.70;87.70;;;;;;4191268;28;20114;-47
2021/05/23 01:39:36;;;;;;;0.00;0.00;;;14.70;87.70;;;;;;4190865;28;19934;-48
2021/05/23 01:42:00;;;;;;;0.00;0.00;;;14.80;87.80;;;;;;4194096;28;20080;-45
2021/05/23 01:44:22;;;;;;;0.00;0.00;;;14.80;87.80;;;;;;4193743;28;20048;-47
2021/05/23 01:46:44;;;;;;;0.00;0.00;;;14.80;87.70;;;;;;4177857;28;20585;-49
2021/05/23 01:49:08;;;;;;;0.00;0.00;;;14.70;87.80;;;;;;4177650;28;20130;-46
2021/05/23 01:51:30;;;;;;;0.00;0.00;;;14.70;87.80;;;;;;4177645;28;20053;-48
2021/05/23 01:53:51;;;;;;;0.20;0.20;;;14.70;87.70;;;;;;4182350;28;20037;-48
2021/05/23 01:56:13;;;;;;;0.00;0.00;;;14.70;87.70;;;;;;4193991;28;20105;-48
2021/05/23 01:58:35;;;;;;;;;;;14.70;87.70;;;;;;4192703;28;20065;-47
2021/05/23 02:00:58;;;;;;;0.00;0.00;;;14.70;87.80;;;;;;4193985;28;19928;-46
2021/05/23 02:03:21;;;;;;;0.00;0.00;;;14.70;87.70;;;;;;4194078;28;20098;-46
2021/05/23 02:05:45;;;;;;;0.00;0.00;;;14.70;87.90;;;;;;4193676;28;20517;-47
2021/05/23 02:08:07;;;;;;;0.00;0.00;;;14.70;87.90;;;;;;4194144;28;20048;-51
2021/05/23 02:10:30;;;;;;;0.00;0.00;;;14.70;87.80;;;;;;4180028;28;20053;-46
2021/05/23 02:12:52;;;;;;;0.00;0.00;;;14.70;87.80;;;;;;4177239;28;20595;-48
2021/05/23 02:15:17;;;;;;;0.00;0.00;;;14.70;87.80;;;;;;4177428;28;20491;-46
2021/05/23 02:17:40;;;;;;;0.00;0.00;;;14.70;87.80;;;;;;4177123;28;20051;-49
2021/05/23 02:20:03;;;;;;;0.00;0.00;;;14.70;87.80;;;;;;4177100;28;20426;-45
2021/05/23 02:22:25;;;;;;;0.00;0.00;;;14.70;87.80;;;;;;4177379;28;20139;-45
2021/05/23 02:24:47;;;;;;;0.00;0.00;;;14.70;87.80;;;;;;4188682;28;20080;-50
2021/05/23 02:27:08;;;;;;;0.00;0.00;;;14.60;87.80;;;;;;4193535;28;20055;-47
2021/05/23 02:29:32;;;;;;;0.00;0.00;;;14.70;87.80;;;;;;4193478;28;20052;-48
2021/05/23 02:31:54;;;;;;;0.00;0.00;;;14.60;88.70;;;;;;4193574;28;20823;-48
2021/05/23 02:34:16;;;;;;;0.00;0.00;;;14.60;87.80;;;;;;4193508;28;20798;-46
2021/05/23 02:36:38;;;;;;;0.00;0.00;;;14.60;87.80;;;;;;4193361;28;20513;-46
2021/05/23 02:38:59;;;;;;;0.10;0.10;;;14.60;87.90;;;;;;4193379;28;20056;-47
2021/05/23 02:41:21;;;;;;;;;;;14.60;87.90;;;;;;4193650;28;20051;-46
2021/05/23 02:43:42;;;;;;;0.00;0.00;;;14.60;87.90;;;;;;4193534;28;19926;-46
2021/05/23 02:46:04;;;;;;;0.17;0.17;;;14.60;87.90;;;;;;4193189;28;20044;-47
2021/05/23 02:48:26;;;;;;;0.00;0.00;;;14.60;87.90;;;;;;4193439;28;20102;-45
2021/05/23 02:50:51;;;;;;;0.08;0.08;;;14.60;87.90;;;;;;4192880;28;20133;-47
2021/05/23 02:53:13;;;;;;;0.10;0.10;;;14.60;87.90;;;;;;4192288;28;20415;-47
2021/05/23 02:55:35;;;;;;;0.32;0.32;;;14.60;87.90;;;;;;4192871;28;20056;-45
2021/05/23 02:57:57;;;;;;;0.00;0.00;;;14.60;87.90;;;;;;4193158;28;20110;-48
2021/05/23 03:00:21;;;;;;;0.00;0.00;;;14.60;87.90;;;;;;4193046;28;20453;-46
2021/05/23 03:02:44;;;;;;;0.00;0.00;;;14.60;87.90;;;;;;4192990;28;20052;-47
2021/05/23 03:05:08;;;;;;;0.00;0.00;;;14.60;87.90;;;;;;4192794;28;20087;-47
2021/05/23 03:07:33;;;;;;;0.00;0.00;;;14.60;87.90;;;;;;4193413;28;20518;-47
2021/05/23 03:09:55;;;;;;;0.00;0.00;;;14.60;87.90;;;;;;4192692;28;20571;-47
2021/05/23 03:12:17;;;;;;;0.22;0.20;;;14.60;88.00;;;;;;4192746;28;20449;-46
2021/05/23 03:14:40;;;;;;;48.88;1.35;;;14.60;88.00;;;;;;4193089;28;20083;-47
2021/05/23 03:17:07;;;;;;;0.00;0.00;;;14.60;87.90;;;;;;4193000;28;20490;-48
2021/05/23 03:19:28;;;;;;;0.00;0.00;;;14.60;87.90;;;;;;4192679;28;20080;-45
2021/05/23 03:21:51;;;;;;;0.00;0.00;;;14.60;87.80;;;;;;4193084;28;20080;-46
2021/05/23 03:24:12;;;;;;;0.00;0.00;;;14.60;87.80;;;;;;4186401;28;20059;-46
2021/05/23 03:26:34;;;;;;;0.00;0.00;;;14.50;87.80;;;;;;4192570;28;20056;-45
2021/05/23 03:28:56;;;;;;;0.00;0.00;;;14.50;87.70;;;;;;4192679;28;20463;-46
2021/05/23 03:31:17;;;;;;;0.00;0.00;;;14.50;87.80;;;;;;4192610;28;20055;-48
2021/05/23 03:33:39;;;;;;;0.00;0.00;;;14.50;87.80;;;;;;4192300;28;20072;-46
2021/05/23 03:36:00;;;;;;;0.00;0.00;;;14.50;87.80;;;;;;4192065;28;20102;-47
2021/05/23 03:38:23;;;;;;;0.00;0.00;;;14.50;87.80;;;;;;4192593;28;20049;-47
2021/05/23 03:40:44;;;;;;;0.00;0.00;;;14.50;87.80;;;;;;4175988;28;20056;-47
2021/05/23 03:43:07;;;;;;;0.00;0.00;;;14.50;87.80;;;;;;4178994;28;20059;-48
2021/05/23 03:45:28;;;;;;;0.38;0.38;;;14.50;87.80;;;;;;4192511;28;20056;-46
2021/05/23 03:47:51;;;;;;;0.00;0.00;;;14.50;87.80;;;;;;4192304;28;20056;-47
2021/05/23 03:50:15;;;;;;;0.10;0.10;;;14.50;87.80;;;;;;4192616;28;20131;-47
2021/05/23 03:52:37;;;;;;;0.00;0.00;;;14.50;87.80;;;;;;4192383;28;20053;-49
2021/05/23 03:54:59;;;;;;;;;;;14.50;87.80;;;;;;4192528;28;20047;-47
2021/05/23 03:57:21;;;;;;;0.00;0.00;;;14.50;87.80;;;;;;4191093;28;19999;-47
2021/05/23 03:59:42;;;;;;;0.00;0.00;;;14.50;87.80;;;;;;4190750;28;20072;-46
2021/05/23 04:02:04;;;;;;;0.00;0.00;;;14.40;87.80;;;;;;4191345;28;20048;-46
2021/05/23 04:04:35;;;;;;;0.00;0.00;;;14.40;87.80;;;;;;4191634;28;20748;-46
2021/05/23 04:06:57;;;;;;;0.00;0.00;;;14.40;87.90;;;;;;4175200;28;20384;-47
2021/05/23 04:09:19;;;;;;;;;;;14.40;87.80;;;;;;4183689;28;20048;-49
2021/05/23 04:11:44;;;;;;;0.00;0.00;;;14.40;87.80;;;;;;4192258;28;20549;-48
2021/05/23 04:14:06;;;;;;;0.00;0.00;;;14.40;87.80;;;;;;4191724;28;20800;-45
2021/05/23 04:16:27;;;;;;;0.00;0.00;;;14.40;87.80;;;;;;4191929;28;20048;-46
2021/05/23 04:18:49;;;;;;;0.00;0.00;;;14.40;87.90;;;;;;4191656;28;20072;-47
2021/05/23 04:21:10;;;;;;;0.03;0.03;;;14.40;87.80;;;;;;4191654;28;20128;-50
2021/05/23 04:23:32;;;;;;;0.00;0.00;;;14.40;87.80;;;;;;4191703;28;20052;-45
2021/05/23 04:25:54;;;;;;;0.00;0.00;;;14.40;87.80;;;;;;4191790;28;20052;-47
2021/05/23 04:28:17;;;;;;;0.00;0.00;;;14.40;88.70;;;;;;4191639;28;20052;-48
2021/05/23 04:30:38;;;;;;;0.00;0.00;;;14.40;87.80;;;;;;4191757;28;20097;-47
2021/05/23 04:33:01;;;;;;;0.00;0.00;;;14.40;87.80;;;;;;4191447;28;20179;-49
2021/05/23 04:35:24;;;;;;;0.00;0.00;;;14.40;87.80;;;;;;4191758;28;20044;-51
2021/05/23 04:37:46;;;;;;;0.00;0.00;;;14.40;87.80;;;;;;4191779;28;20048;-49
2021/05/23 04:40:09;;;;;;;0.15;0.15;;;14.40;87.80;;;;;;4174995;28;20500;-50
2021/05/23 04:42:31;;;;;;;0.00;0.00;;;14.40;87.70;;;;;;4175038;28;20111;-46
2021/05/23 04:45:15;;;;;;;0.00;0.00;;;14.40;87.80;;;;;;4174989;28;20136;-48
2021/05/23 04:47:36;;;;;;;0.00;0.00;;;14.40;87.80;;;;;;4175274;28;20579;-47
2021/05/23 04:49:58;;;;;;;0.00;0.00;;;14.40;87.70;;;;;;4189007;28;20044;-53
2021/05/23 04:52:19;;;;;;;0.00;0.00;;;14.40;87.80;;;;;;4190379;28;20106;-48
2021/05/23 04:54:42;;;;;;;0.00;0.00;;;14.40;87.70;;;;;;4191471;28;20052;-49
2021/05/23 04:57:05;;;;;;;0.00;0.00;;;14.40;87.70;;;;;;4190165;28;20062;-47
2021/05/23 04:59:26;;;;;;;0.00;0.00;;;14.40;87.70;;;;;;4191569;28;20052;-46
2021/05/23 05:01:49;;;;;;;0.00;0.00;;;14.40;87.70;;;;;;4190790;28;20109;-49
2021/05/23 05:04:10;;;;;;;0.00;0.00;;;14.40;87.60;;;;;;4174769;28;20033;-47
2021/05/23 05:06:32;;;;;;;;;;;14.40;87.60;;;;;;4175255;28;20106;-48
2021/05/23 05:08:53;;;;;;;;;;;14.40;87.70;;;;;;4183053;28;19929;-48
2021/05/23 05:11:15;;;;;;;0.00;0.00;;;14.40;87.60;;;;;;4191369;28;19920;-50
2021/05/23 05:13:36;;;;;;;0.00;0.00;;;14.50;87.50;;;;;;4191289;28;20503;-49
2021/05/23 05:15:57;;;;;;;0.00;0.00;;;14.50;87.40;;;;;;4190885;28;20544;-49
2021/05/23 05:18:19;;;;;;;;;;;14.50;87.40;;;;;;4191451;28;20052;-45
2021/05/23 05:20:41;;;;;;;0.00;0.00;;;14.50;87.40;;;;;;4190941;28;20382;-45
2021/05/23 05:23:02;;;;;;;;;;;14.50;87.20;;;;;;4191436;28;20052;-47
2021/05/23 05:25:24;;;;;;;;;;;14.60;87.20;;;;;;4191568;28;19928;-45
2021/05/23 05:27:45;;;;;;;0.10;0.10;;;14.50;87.10;;;;;;4191384;28;20298;-50
2021/05/23 05:30:08;;;;;;;0.00;0.00;;;14.60;87.10;;;;;;4191120;28;20499;-46
2021/05/23 05:32:30;;;;;;;0.00;0.00;;;14.60;87.00;;;;;;4174064;28;20056;-47
2021/05/23 05:34:52;;;;;;;0.13;0.13;;;14.60;86.80;;;;;;4175035;28;20098;-47
2021/05/23 05:37:14;;;;;;;0.00;0.00;;;14.70;86.80;;;;;;4173163;28;20053;-46
2021/05/23 05:39:35;;;;;;;0.00;0.00;;;14.80;86.50;;;;;;4174031;28;20088;-46
2021/05/23 05:41:58;;;;;;;0.00;0.00;;;14.80;85.90;;;;;;4174491;28;20103;-47
2021/05/23 05:44:19;;;;;;;0.00;0.00;;;14.80;85.80;;;;;;4174588;28;20518;-46
2021/05/23 05:46:41;;;;;;;;;;;14.80;85.80;;;;;;4174909;28;20045;-47
2021/05/23 05:49:03;;;;;;;0.00;0.00;;;14.90;86.40;;;;;;4173902;28;19921;-45
2021/05/23 05:51:26;;;;;;;0.00;0.00;;;14.90;87.00;;;;;;4188921;28;20079;-47
2021/05/23 05:53:47;;;;;;;0.90;0.40;;;14.90;86.50;;;;;;4190007;28;20048;-46
2021/05/23 05:56:09;;;;;;;0.00;0.00;;;15.00;86.10;;;;;;4190664;28;20404;-47
2021/05/23 05:58:30;;;;;;;0.00;0.00;;;15.00;85.70;;;;;;4190723;28;20143;-47
2021/05/23 06:00:52;;;;;;;0.00;0.00;;;15.10;85.60;;;;;;4190808;28;20049;-45
2021/05/23 06:03:14;;;;;;;0.00;0.00;;;15.10;85.40;;;;;;4190429;28;20106;-45
2021/05/23 06:05:36;;;;;;;0.00;0.00;;;15.10;85.30;;;;;;4190548;28;20399;-47
2021/05/23 06:07:59;;;;;;;0.10;0.10;;;15.00;85.30;;;;;;4190650;28;20052;-45
2021/05/23 06:10:20;;;;;;;0.00;0.00;;;15.00;85.40;;;;;;4190426;28;20146;-46
2021/05/23 06:12:42;;;;;;;0.00;0.00;;;15.00;85.50;;;;;;4190753;28;20048;-47
2021/05/23 06:15:04;;;;;;;0.00;0.00;;;15.00;85.70;;;;;;4190603;28;20048;-47
2021/05/23 06:17:26;;;;;;;0.45;0.45;;;15.00;85.80;;;;;;4190863;28;20199;-46
2021/05/23 06:19:47;;;;;;;0.00;0.00;;;14.90;85.90;;;;;;4190476;28;20044;-47
2021/05/23 06:22:09;;;;;;;0.00;0.00;;;14.90;86.00;;;;;;4190832;28;20087;-46
2021/05/23 06:24:32;;;;;;;0.00;0.00;;;14.90;86.10;;;;;;4190707;28;20074;-46
2021/05/23 06:26:53;;;;;;;0.00;0.00;;;14.90;86.20;;;;;;4190571;28;20494;-46
2021/05/23 06:29:15;;;;;;;0.00;0.00;;;14.90;86.30;;;;;;4193619;28;20127;-46
2021/05/23 06:31:36;;;;;;;0.15;0.15;;;14.80;86.20;;;;;;4193234;28;20522;-46
2021/05/23 06:33:58;;;;;;;0.30;0.30;;;14.90;86.10;;;;;;4193492;28;20052;-45
2021/05/23 06:36:19;;;;;;;1.33;1.23;;;14.90;90.40;;;;;;4191823;28;20894;-47
2021/05/23 06:38:41;;;;;;;0.52;0.52;;;15.00;91.10;;;;;;4193417;28;20064;-47
2021/05/23 06:41:03;;;;;;;;;;;15.10;91.10;;;;;;4193966;28;20491;-47
2021/05/23 06:43:25;;;;;;;0.40;0.40;;;15.10;90.10;;;;;;4193495;28;19924;-47
2021/05/23 06:45:47;;;;;;;0.00;0.00;;;15.20;88.70;;;;;;4193400;28;20049;-47
2021/05/23 06:48:10;;;;;;;0.43;0.43;;;15.20;87.00;;;;;;4193363;28;20055;-47
2021/05/23 06:50:31;;;;;;;0.10;0.10;;;15.30;86.00;;;;;;4193469;28;20060;-45
2021/05/23 06:52:53;;;;;;;0.00;0.00;;;15.40;84.80;;;;;;4192479;28;20098;-45
2021/05/23 06:55:14;;;;;;;0.20;0.20;;;15.60;83.70;;;;;;4176965;28;20048;-45
2021/05/23 06:57:36;;;;;;;;;;;15.60;82.80;;;;;;4182545;28;20072;-48
2021/05/23 06:59:58;;;;;;;0.00;0.00;;;15.60;82.20;;;;;;4193312;28;20011;-45
2021/05/23 07:02:20;;;;;;;0.00;0.00;;;15.60;81.80;;;;;;4192449;28;20052;-49
2021/05/23 07:04:41;;;;;;;0.00;0.00;;;15.50;82.40;;;;;;4193346;28;20052;-51
2021/05/23 07:07:03;;;;;;;;;;;15.50;81.50;;;;;;4193187;28;20056;-47
2021/05/23 07:09:24;;;;;;;;;;;15.40;81.10;;;;;;4192609;28;19920;-45
2021/05/23 07:11:46;;;;;;;1.92;1.80;;;15.40;80.70;;;;;;4192651;28;19927;-45
2021/05/23 07:14:08;;;;;;;0.00;0.00;;;15.40;80.80;;;;;;4192100;28;20048;-48
2021/05/23 07:16:30;;;;;;;0.30;0.30;;;15.30;80.60;;;;;;4192904;28;20051;-48
2021/05/23 07:18:52;;;;;;;0.10;0.10;;;15.30;80.40;;;;;;4192734;28;20048;-52
2021/05/23 07:21:14;;;;;;;0.17;0.17;;;15.30;80.40;;;;;;4190876;28;20052;-45
2021/05/23 07:23:36;;;;;;;0.00;0.00;;;15.20;80.00;;;;;;4191986;28;20509;-49
2021/05/23 07:25:58;;;;;;;0.10;0.10;;;15.30;79.50;;;;;;4192724;28;20052;-46
2021/05/23 07:28:20;;;;;;;0.00;0.00;;;15.30;79.20;;;;;;4191930;28;20068;-52
2021/05/23 07:30:42;;;;;;;1.25;1.25;;;15.40;78.70;;;;;;4192822;28;20041;-49
2021/05/23 07:33:03;;;;;;;0.00;0.00;;;15.50;78.40;;;;;;4192466;28;20055;-52
2021/05/23 07:35:25;;;;;;;0.10;0.10;;;15.50;78.10;;;;;;4192505;28;20117;-46
2021/05/23 07:37:47;;;;;;;0.00;0.00;;;15.50;78.00;;;;;;4191643;28;20448;-50
2021/05/23 07:40:13;;;;;;;0.00;0.00;;;15.60;77.70;;;;;;4190681;28;20136;-48
2021/05/23 07:42:35;;;;;;;0.10;0.10;;;15.60;77.40;;;;;;4191892;28;20059;-46
2021/05/23 07:44:56;;;;;;;0.00;0.00;;;15.60;77.80;;;;;;4192525;28;20739;-49
2021/05/23 07:47:18;;;;;;;;;;;15.60;76.90;;;;;;4193023;28;20054;-48
2021/05/23 07:49:43;;;;;;;0.00;0.00;;;15.60;76.60;;;;;;4192691;28;19921;-52
2021/05/23 07:52:05;;;;;;;0.20;0.20;;;15.60;76.40;;;;;;4192128;28;20055;-45
2021/05/23 07:54:28;;;;;;;0.00;0.00;;;15.70;76.10;;;;;;4192101;28;20059;-45
2021/05/23 07:56:49;;;;;;;0.00;0.00;;;15.70;75.50;;;;;;4190305;28;20044;-46
2021/05/23 07:59:11;;;;;;;0.00;0.00;;;15.70;75.30;;;;;;4191907;28;20052;-47
2021/05/23 08:01:34;;;;;;;0.00;0.00;;;15.70;75.00;;;;;;4191922;28;20064;-45
2021/05/23 08:03:56;;;;;;;0.30;0.30;;;15.70;75.30;;;;;;4191650;28;20052;-45
2021/05/23 08:06:18;;;;;;;0.75;0.75;;;15.70;75.40;;;;;;4191595;28;20131;-44
2021/05/23 08:08:40;;;;;;;0.00;0.00;;;15.60;75.40;;;;;;4191250;28;20072;-44
2021/05/23 08:11:02;;;;;;;0.00;0.00;;;15.60;75.60;;;;;;4191653;28;20048;-44
2021/05/23 08:13:23;;;;;;;0.00;0.00;;;15.60;75.70;;;;;;4191120;28;20048;-44
2021/05/23 08:15:45;;;;;;;0.10;0.10;;;15.50;75.70;;;;;;4191688;28;20700;-46
2021/05/23 08:18:07;;;;;;;0.03;0.03;;;15.50;76.00;;;;;;4179970;28;20764;-47
2021/05/23 08:20:30;;;;;;;1.23;0.98;;;15.50;76.10;;;;;;4191534;28;20472;-45
2021/05/23 08:22:52;;;;;;;0.00;0.00;;;15.50;76.10;;;;;;4191691;28;20048;-47
2021/05/23 08:25:15;;;;;;;0.40;0.40;;;15.50;75.90;;;;;;4191742;28;20487;-44
2021/05/23 08:27:37;;;;;;;0.00;0.00;;;15.40;75.80;;;;;;4188364;28;20113;-45
2021/05/23 08:29:58;;;;;;;0.10;0.10;;;15.40;75.60;;;;;;4191169;28;20048;-44
2021/05/23 08:32:22;;;;;;;2.78;0.93;;;15.40;75.40;;;;;;4191751;28;20138;-44
2021/05/23 08:34:44;;;;;;;0.00;0.00;;;15.40;75.50;;;;;;4191524;28;20525;-45
2021/05/23 08:37:07;;;;;;;0.00;0.00;;;15.40;75.30;;;;;;4191419;28;20049;-45
2021/05/23 08:39:29;;;;;;;0.00;0.00;;;15.40;75.20;;;;;;4187090;28;20064;-44
2021/05/23 08:41:52;;;;;;;0.00;0.00;;;15.40;75.30;;;;;;4191834;28;20057;-45
2021/05/23 08:44:19;;;;;;;0.00;0.00;;;15.40;75.00;;;;;;4191768;28;20102;-45
2021/05/23 08:46:42;;;;;;;0.08;0.08;;;15.50;74.90;;;;;;4191728;28;20510;-45
2021/05/23 08:49:04;;;;;;;0.00;0.00;;;15.50;75.10;;;;;;4189673;28;20128;-48
2021/05/23 08:51:25;;;;;;;1.20;0.35;;;15.50;74.90;;;;;;4174720;28;20060;-48
2021/05/23 08:53:48;;;;;;;0.00;0.00;;;15.50;74.70;;;;;;4175146;28;20049;-47
2021/05/23 08:56:10;;;;;;;0.20;0.20;;;15.50;74.60;;;;;;4175615;28;20049;-45
2021/05/23 08:58:31;;;;;;;0.00;0.00;;;15.50;74.70;;;;;;4191156;28;20490;-45
2021/05/23 09:00:54;;;;;;;0.00;0.00;;;15.50;74.80;;;;;;4191526;28;20049;-46
2021/05/23 09:03:16;;;;;;;0.00;0.00;;;15.50;74.70;;;;;;4191154;28;20048;-47
2021/05/23 09:05:41;;;;;;;0.00;0.00;;;15.40;74.70;;;;;;4191167;28;20076;-47
2021/05/23 09:08:04;;;;;;;0.10;0.10;;;15.40;75.10;;;;;;4191515;28;20786;-46
2021/05/23 09:10:31;;;;;;;0.00;0.00;;;15.40;75.20;;;;;;4191238;28;20155;-45
2021/05/23 09:12:53;;;;;;;3.40;2.28;;;15.40;75.50;;;;;;4191324;28;20062;-48
2021/05/23 09:15:15;;;;;;;0.00;0.00;;;15.40;75.60;;;;;;4190310;28;20048;-45
2021/05/23 09:17:40;;;;;;;0.00;0.00;;;15.40;75.80;;;;;;4191293;28;20074;-45
2021/05/23 09:20:01;;;;;;;;;;;15.40;76.00;;;;;;4191684;28;20554;-45
2021/05/23 09:22:25;;;;;;;0.00;0.00;;;15.30;76.20;;;;;;4191030;28;20398;-46
2021/05/23 09:24:56;;;;;;;0.10;0.10;;;15.30;76.30;;;;;;4191164;28;20044;-46
2021/05/23 09:27:18;;;;;;;0.00;0.00;;;15.30;76.50;;;;;;4190975;28;20509;-48
2021/05/23 09:29:40;;;;;;;0.08;0.08;;;15.30;77.50;;;;;;4191162;28;20414;-47
2021/05/23 09:32:06;;;;;;;0.00;0.00;;;15.30;76.90;;;;;;4190521;28;20139;-45
2021/05/23 09:34:29;;;;;;;0.00;0.00;;;15.20;77.10;;;;;;4191338;28;20523;-45
2021/05/23 09:36:51;;;;;;;0.00;0.00;;;15.20;78.50;;;;;;4190698;28;20082;-46
2021/05/23 09:39:13;;;;;;;0.08;0.08;;;15.20;77.60;;;;;;4191184;28;20102;-48
2021/05/23 09:41:36;;;;;;;0.00;0.00;;;15.20;77.70;;;;;;4190976;28;20131;-46
2021/05/23 09:44:13;;;;;;;0.00;0.00;;;15.20;77.90;;;;;;4191146;28;20102;-46
2021/05/23 09:46:34;;;;;;;0.00;0.00;;;15.20;78.20;;;;;;4174102;28;20410;-45
2021/05/23 09:48:57;;;;;;;0.00;0.00;;;15.20;78.50;;;;;;4174405;28;20495;-48
2021/05/23 09:51:18;;;;;;;0.40;0.40;;;15.20;78.70;;;;;;4174412;28;20045;-45
2021/05/23 09:53:42;;;;;;;0.13;0.13;;;15.10;78.80;;;;;;4174452;28;20458;-49
2021/05/23 09:56:06;;;;;;;1.13;1.13;;;15.10;79.00;;;;;;4174432;28;20045;-47
2021/05/23 09:58:30;;;;;;;0.05;0.05;;;15.20;79.30;;;;;;4191175;28;20049;-47
2021/05/23 10:00:52;;;;;;;0.57;0.57;;;15.10;79.40;;;;;;4190679;28;20097;-47
2021/05/23 10:03:22;;;;;;;1.13;0.43;;;15.10;79.70;;;;;;4193816;28;20445;-46
2021/05/23 10:05:45;;;;;;;0.45;0.45;;;15.10;79.90;;;;;;4192746;28;20049;-45
2021/05/23 10:08:13;;;;;;;0.40;0.40;;;15.10;80.10;;;;;;4193496;28;20059;-49
2021/05/23 10:10:35;;;;;;;0.00;0.00;;;15.10;80.30;;;;;;4192927;28;20091;-50
2021/05/23 10:12:57;;;;;;;0.00;0.00;;;15.10;81.10;;;;;;4193502;28;20110;-48
2021/05/23 10:15:19;;;;;;;0.00;0.00;;;15.10;80.50;;;;;;4193528;28;20041;-48
2021/05/23 10:17:51;;;;;;;1.58;1.48;;;15.10;80.50;;;;;;4193619;28;20048;-53
2021/05/23 10:44:10;;;;;;;2.75;2.30;;;15.30;80.60;;;;;;4165728;27;994490;-47
2021/05/23 10:46:32;;;;;;;0.43;0.43;;;15.50;80.10;;;;;;4179272;28;20136;-50
2021/05/23 10:48:55;;;;;;;0.50;0.50;;;15.50;80.10;;;;;;4172701;28;20072;-49
2021/05/23 10:51:18;;;;;;;0.38;0.38;;;15.50;80.00;;;;;;4178405;28;20057;-52
2021/05/23 10:53:39;;;;;;;0.20;0.20;;;15.50;79.70;;;;;;4176725;28;20045;-49
2021/05/23 10:56:01;;;;;;;0.10;0.10;;;15.50;79.50;;;;;;4179347;28;20491;-46
2021/05/23 10:58:24;;;;;;;0.75;0.75;;;15.40;79.60;;;;;;4170494;28;20077;-47
2021/05/23 11:00:51;;;;;;;0.32;0.32;;;15.40;79.70;;;;;;4178951;28;20049;-48
2021/05/23 11:03:14;;;;;;;0.43;0.43;;;15.40;79.80;;;;;;4170277;28;20055;-45
2021/05/23 11:05:36;;;;;;;1.02;0.98;;;15.40;79.80;;;;;;4170400;28;20102;-51
2021/05/23 11:08:00;;;;;;;1.98;1.90;;;15.30;79.80;;;;;;4171019;28;20813;-48
2021/05/23 11:10:23;;;;;;;2.45;2.33;;;15.30;79.90;;;;;;4182992;28;20049;-47
2021/05/23 11:12:54;;;;;;;5.00;4.68;;;15.30;80.10;;;;;;4175293;28;20053;-51
2021/05/23 11:15:17;;;;;;;13.43;12.32;;;15.30;80.40;;;;;;4178985;28;20123;-53
2021/05/23 11:17:39;;;;;;;16.67;15.25;;;15.30;80.70;;;;;;4179143;28;20044;-50
2021/05/23 11:20:01;;;;;;;42.25;26.25;;;15.40;81.10;;;;;;4178872;28;20091;-50
2021/05/23 11:22:24;;;;;;;51.17;28.50;;;15.40;81.10;;;;;;4172056;28;20555;-54
2021/05/23 11:24:51;;;;;;;49.33;36.10;;;15.40;81.30;;;;;;4170523;28;20073;-53
2021/05/23 11:27:14;;;;;;;51.33;42.78;;;15.40;81.40;;;;;;4180732;28;20068;-55
2021/05/23 11:29:36;;;;;;;82.15;55.70;;;15.40;81.30;;;;;;4182316;28;20060;-49
2021/05/23 11:31:58;;;;;;;77.82;52.75;;;15.50;81.60;;;;;;4170766;28;20616;-47
2021/05/23 11:34:21;;;;;;;109.07;71.57;;;15.50;81.70;;;;;;4170261;28;20557;-47
2021/05/23 11:36:43;;;;;;;87.35;74.93;;;15.50;81.60;;;;;;4178552;28;20052;-51
2021/05/23 11:39:07;;;;;;;209.98;91.38;;;15.50;81.80;;;;;;4177969;28;20057;-48
2021/05/23 11:41:30;;;;;;;180.00;93.70;;;15.50;81.80;;;;;;4176584;28;20073;-50
2021/05/23 11:43:55;;;;;;;150.10;93.80;;;15.60;81.80;;;;;;4173299;28;20418;-48
2021/05/23 11:46:22;;;;;;;123.70;89.78;;;15.50;81.60;;;;;;4168085;28;20375;-49
2021/05/23 11:48:46;;;;;;;135.10;95.30;;;15.60;81.70;;;;;;4166861;28;20060;-51
2021/05/23 11:51:10;;;;;;;131.27;86.55;;;15.60;81.80;;;;;;4167452;28;20053;-47
2021/05/23 11:53:40;;;;;;;78.40;70.32;;;15.60;81.70;;;;;;4167584;28;20049;-50
2021/05/23 11:56:03;;;;;;;56.15;50.50;;;15.60;81.50;;;;;;4167625;28;20064;-46
2021/05/23 11:58:25;;;;;;;87.28;63.22;;;15.60;81.20;;;;;;4164654;28;20061;-50
2021/05/23 12:00:46;;;;;;;91.07;61.90;;;15.60;82.00;;;;;;4169281;28;20049;-49
2021/05/23 12:03:11;;;;;;;100.72;47.63;;;15.60;80.90;;;;;;4167197;28;20041;-48
2021/05/23 12:05:43;;;;;;;58.38;46.33;;;15.60;81.00;;;;;;4167316;28;20072;-48
2021/05/23 12:08:17;;;;;;;124.53;41.03;;;15.60;80.90;;;;;;4166815;28;20059;-49
2021/05/23 12:10:39;;;;;;;26.25;23.70;;;15.60;80.70;;;;;;4167044;28;20049;-47
2021/05/23 12:13:01;;;;;;;54.13;38.08;;;15.60;80.60;;;;;;4164548;28;20045;-49
2021/05/23 12:15:23;;;;;;;40.30;30.67;;;15.70;80.30;;;;;;4167156;28;20045;-50
2021/05/23 12:17:54;;;;;;;24.42;19.95;;;15.60;80.00;;;;;;4167959;28;20068;-47
2021/05/23 12:20:16;;;;;;;;;;;15.60;79.90;;;;;;4169055;28;20048;-52
2021/05/23 12:22:38;;;;;;;30.70;11.77;;;15.60;79.80;;;;;;4167096;28;20386;-46
2021/05/23 12:25:10;;;;;;;20.98;18.23;;;15.60;79.80;;;;;;4167230;28;20052;-50
2021/05/23 12:27:34;;;;;;;22.88;9.93;;;15.60;79.90;;;;;;4166319;28;20041;-51
2021/05/23 12:30:11;;;;;;;24.92;13.20;;;15.60;79.80;;;;;;4168516;28;20049;-48
2021/05/23 12:32:43;;;;;;;9.32;8.50;;;15.60;79.80;;;;;;4166879;28;20487;-49
2021/05/23 12:35:10;;;;;;;15.98;6.25;;;15.60;79.80;;;;;;4166961;28;20445;-50
2021/05/23 12:37:31;;;;;;;6.95;6.43;;;15.50;80.60;;;;;;4165696;28;20056;-49
2021/05/23 12:39:53;;;;;;;10.43;5.03;;;15.50;79.70;;;;;;4166644;28;20048;-51
2021/05/23 12:42:16;;;;;;;8.45;6.60;;;15.50;79.70;;;;;;4167475;28;20103;-50
2021/05/23 12:44:37;;;;;;;16.77;3.97;;;15.50;79.50;;;;;;4135320;28;20498;-52
2021/05/23 12:47:09;;;;;;;7.35;3.00;;;15.50;79.40;;;;;;4134381;28;20050;-49
2021/05/23 12:49:36;;;;;;;0.60;0.60;;;15.50;79.20;;;;;;4133816;28;20554;-46